Flight Track Log - Related Links

Times and Time Zones

All times are in EDT time to prevent confusion due to time zone crossing. See the CSN3200 flight status page for this flight to view local times or setup timezone preferences in your user account.

Time Position Orientation Groundspeed Altitude Reporting Facility
EDT Latitude Longitude Course Direction KTS MPH feet Rate Location/Type
Wed 10:49:00 AM 38.1558 114.6828 185° South  Level Estimated
Wed 10:50:00 AM 38.0307 114.6690 185° South  Level Estimated
Wed 10:51:00 AM 37.9057 114.6552 185° South  Level Estimated
Wed 10:52:00 AM 37.7807 114.6415 185° South  Level Estimated
Wed 10:53:00 AM 37.6556 114.6278 185° South  Level Estimated
Wed 10:54:00 AM 37.5306 114.6142 185° South  Level Estimated
Wed 10:55:00 AM 37.4055 114.6006 185° South  Level Estimated
Wed 10:56:00 AM 37.2805 114.5870 185° South  Level Estimated
Wed 10:57:00 AM 37.1555 114.5735 185° South  Level Estimated
Wed 10:58:00 AM 37.0304 114.5601 185° South  Level Estimated
Wed 10:59:00 AM 36.9054 114.5467 185° South  Level Estimated
Wed 11:00:00 AM 36.7803 114.5333 185° South  Level Estimated
Wed 11:01:00 AM 36.6553 114.5200 185° South  Level Estimated
Wed 11:02:00 AM 36.5302 114.5067 185° South  Level Estimated
Wed 11:03:00 AM 36.4052 114.4935 185° South  Level Estimated
Wed 11:04:00 AM 36.2801 114.4803 185° South  Level Estimated
Wed 11:05:00 AM 36.1551 114.4671 185° South  Level Estimated
Wed 11:06:00 AM 36.0300 114.4540 185° South  Level Estimated
Wed 11:07:00 AM 35.9050 114.4410 185° South  Level Estimated
Wed 11:08:00 AM 35.7799 114.4280 185° South  Level Estimated
Wed 11:09:00 AM 35.6549 114.4150 185° South  Level Estimated
Wed 11:10:00 AM 35.5298 114.4020 185° South  Level Estimated
Wed 11:11:00 AM 35.4047 114.3891 185° South  Level Estimated
Wed 11:12:00 AM 35.2797 114.3763 185° South  Level Estimated
Wed 11:13:00 AM 35.1546 114.3635 185° South  Level Estimated
Wed 11:14:00 AM 35.0295 114.3507 185° South  Level Estimated
Wed 11:15:00 AM 34.9045 114.3379 185° South  Level Estimated
Wed 11:16:00 AM 34.7794 114.3252 185° South  Level Estimated
Wed 11:17:00 AM 34.6543 114.3126 185° South  Level Estimated
Wed 11:18:00 AM 34.5293 114.2999 185° South  Level Estimated
Wed 11:19:00 AM 34.4042 114.2873 185° South  Level Estimated
Wed 11:20:00 AM 34.2791 114.2748 185° South  Level Estimated
Wed 11:21:00 AM 34.1540 114.2623 185° South  Level Estimated
Wed 11:22:00 AM 34.0290 114.2498 185° South  Level Estimated
Wed 11:23:00 AM 33.9039 114.2374 185° South  Level Estimated
Wed 11:24:00 AM 33.7788 114.2249 185° South  Level Estimated
Wed 11:25:00 AM 33.6537 114.2126 185° South  Level Estimated
Wed 11:26:00 AM 33.5286 114.2002 185° South  Level Estimated
Wed 11:27:00 AM 33.4036 114.1879 185° South  Level Estimated
Wed 11:28:00 AM 33.2785 114.1757 185° South  Level Estimated
Wed 11:29:00 AM 33.1534 114.1635 185° South  Level Estimated
Wed 11:30:00 AM 33.0283 114.1513 185° South  Level Estimated
Wed 11:31:00 AM 32.9032 114.1391 185° South  Level Estimated
Wed 11:32:00 AM 32.7781 114.1270 185° South  Level Estimated
Wed 11:33:00 AM 32.6530 114.1149 185° South  Level Estimated
Wed 11:34:00 AM 32.5280 114.1028 185° South  Level Estimated
Wed 11:35:00 AM 32.4029 114.0908 185° South  Level Estimated
Wed 11:36:00 AM 32.2778 114.0788 185° South  Level Estimated
Wed 11:37:00 AM 32.1527 114.0669 185° South  Level Estimated
Wed 11:38:00 AM 32.0276 114.0549 185° South  Level Estimated
Wed 11:39:00 AM 31.9025 114.0431 185° South  Level Estimated
Wed 11:40:00 AM 31.7774 114.0312 185° South  Level Estimated
Wed 11:41:00 AM 31.6523 114.0194 185° South  Level Estimated
Wed 11:42:00 AM 31.5272 114.0076 185° South  Level Estimated
Wed 11:43:00 AM 31.4021 113.9958 185° South  Level Estimated
Wed 11:44:00 AM 31.2770 113.9841 185° South  Level Estimated
Wed 11:45:00 AM 31.1519 113.9724 185° South  Level Estimated
Wed 11:46:00 AM 31.0268 113.9607 185° South  Level Estimated
Wed 11:47:00 AM 30.9017 113.9491 185° South  Level Estimated
Wed 11:48:00 AM 30.7766 113.9375 185° South  Level Estimated
Wed 11:49:00 AM 30.6515 113.9259 185° South  Level Estimated
Wed 11:50:00 AM 30.5264 113.9143 185° South  Level Estimated
Wed 11:51:00 AM 30.4013 113.9028 185° South  Level Estimated
Wed 11:52:00 AM 30.2761 113.8913 185° South  Level Estimated
Wed 11:53:00 AM 30.1510 113.8799 185° South  Level Estimated
Wed 11:54:00 AM 30.0259 113.8684 185° South  Level Estimated
Wed 11:55:00 AM 29.9008 113.8570 185° South  Level Estimated
Wed 11:56:00 AM 29.7757 113.8457 185° South  Level Estimated
Wed 11:57:00 AM 29.6506 113.8343 185° South  Level Estimated
Wed 11:58:00 AM 29.5255 113.8230 185° South  Level Estimated
Wed 11:59:00 AM 29.4004 113.8117 184° South  Level Estimated
Wed 12:00:00 PM 29.2752 113.8004 184° South  Level Estimated
Wed 12:01:00 PM 29.1501 113.7892 184° South  Level Estimated
Wed 12:02:00 PM 29.0250 113.7780 184° South  Level Estimated
Wed 12:03:00 PM 28.8999 113.7668 184° South  Level Estimated
Wed 12:04:00 PM 28.7747 113.7557 184° South  Level Estimated
Wed 12:05:00 PM 28.6496 113.7445 184° South  Level Estimated
Wed 12:06:00 PM 28.5245 113.7334 184° South  Level Estimated
Wed 12:07:00 PM 28.3994 113.7224 184° South  Level Estimated
Wed 12:08:00 PM 28.2743 113.7113 184° South  Level Estimated
Wed 12:09:00 PM 28.1491 113.7003 184° South  Level Estimated
Wed 12:10:00 PM 28.0240 113.6893 184° South  Level Estimated
Wed 12:11:00 PM 27.8989 113.6783 184° South  Level Estimated
Wed 12:12:00 PM 27.7737 113.6674 184° South  Level Estimated
Wed 12:13:00 PM 27.6486 113.6565 184° South  Level Estimated
Wed 12:14:00 PM 27.5235 113.6456 184° South  Level Estimated
Wed 12:15:00 PM 27.3983 113.6347 184° South  Level Estimated
Wed 12:16:00 PM 27.2732 113.6239 184° South  Level Estimated
Wed 12:17:00 PM 27.1481 113.6130 184° South  Level Estimated
Wed 12:18:00 PM 27.0230 113.6022 184° South  Level Estimated
Wed 12:19:00 PM 26.8978 113.5915 184° South  Level Estimated
Wed 12:20:00 PM 26.7727 113.5807 184° South  Level Estimated
Wed 12:21:00 PM 26.6476 113.5700 184° South  Level Estimated
Wed 12:22:00 PM 26.5224 113.5593 184° South  Level Estimated
Wed 12:23:00 PM 26.3973 113.5486 184° South  Level Estimated
Wed 12:24:00 PM 26.2721 113.5380 184° South  Level Estimated
Wed 12:25:00 PM 26.1470 113.5273 184° South  Level Estimated
Wed 12:26:00 PM 26.0219 113.5167 184° South  Level Estimated
Wed 12:27:00 PM 25.8967 113.5061 184° South  Level Estimated
Wed 12:28:00 PM 25.7716 113.4956 184° South  Level Estimated
Wed 12:29:00 PM 25.6464 113.4850 184° South  Level Estimated
Wed 12:30:00 PM 25.5213 113.4745 184° South  Level Estimated
Wed 12:31:00 PM 25.3962 113.4640 184° South  Level Estimated
Wed 12:32:00 PM 25.2710 113.4535 184° South  Level Estimated
Wed 12:33:00 PM 25.1459 113.4431 184° South  Level Estimated
Wed 12:34:00 PM 25.0207 113.4326 184° South  Level Estimated
Wed 12:35:00 PM 24.8956 113.4222 184° South  Level Estimated
Wed 12:36:00 PM 24.7704 113.4118 184° South  Level Estimated
Wed 12:37:00 PM 24.6453 113.4015 184° South  Level Estimated
Wed 12:38:00 PM 24.5201 113.3911 184° South  Level Estimated
Wed 12:39:00 PM 24.3950 113.3808 184° South  Level Estimated
Wed 12:40:00 PM 24.2698 113.3705 184° South  Level Estimated
Wed 12:41:00 PM 24.1447 113.3602 184° South  Level Estimated
Wed 12:42:00 PM 24.0195 113.3499 184° South  Level Estimated
Wed 12:43:00 PM 23.8944 113.3397 184° South  Level Estimated
Wed 12:44:00 PM 23.7692 113.3295 184° South  Level Estimated
Wed 12:44:43 PM 24.4270 113.7160 184° South 371 427 18,000  Level FlightAware ADS-B
Wed 12:45:00 PM 23.6441 113.3192 184° South  Level Estimated
Wed 12:45:28 PM 24.3510 113.7070 186° South 362 417 16,900  Level FlightAware ADS-B
Wed 12:46:09 PM 24.2830 113.6990 186° South 353 406 15,800 -1,425 Descending FlightAware ADS-B
Wed 12:46:48 PM 24.2190 113.6910 187° South 353 406 15,000 -1,157 Descending FlightAware ADS-B
Wed 12:47:32 PM 24.1490 113.6790 189° South 346 398 14,200 -857 Descending FlightAware ADS-B
Wed 12:48:12 PM 24.0910 113.6570 199° South 316 364 13,800 -349 Descending FlightAware ADS-B
Wed 12:48:58 PM 24.0320 113.6320 201° Southwest 295 339 13,700 -375 Descending FlightAware ADS-B
Wed 12:49:32 PM 23.9840 113.6160 197° South 325 374 13,300 -779 Descending FlightAware ADS-B
Wed 12:50:15 PM 23.9210 113.5930 198° South 337 388 12,700 -767 Descending FlightAware ADS-B
Wed 12:50:58 PM 23.8570 113.5690 199° South 330 380 12,200 -711 Descending FlightAware ADS-B
Wed 12:51:31 PM 23.8100 113.5510 199° South 328 377 11,800 -640 Descending FlightAware ADS-B
Wed 12:52:13 PM 23.7530 113.5290 199° South 298 343 11,400 -627 Descending FlightAware ADS-B
Wed 12:52:38 PM 23.7250 113.5050 218° Southwest 302 348 11,100 -522 Descending FlightAware ADS-B
Wed 12:53:22 PM 23.6850 113.4550 229° Southwest 300 345 10,800 -209 Descending FlightAware ADS-B
Wed 12:54:04 PM 23.6470 113.4060 230° Southwest 302 348 10,800 -293 Level FlightAware ADS-B
Wed 12:54:44 PM 23.6100 113.3590 229° Southwest 302 348 10,400 -732 Descending FlightAware ADS-B
Wed 12:55:26 PM 23.5710 113.3110 228° Southwest 301 346 9,800 -857 Descending FlightAware ADS-B
Wed 12:55:54 PM 23.5460 113.2790 230° Southwest 291 335 9,400 -724 Descending FlightAware ADS-B
Wed 12:56:24 PM 23.5210 113.2460 230° Southwest 269 310 9,100 -522 Descending FlightAware ADS-B
Wed 12:56:40 PM 23.5080 113.2300 228° Southwest 259 298 9,000 -571 Descending FlightAware ADS-B
Wed 12:57:06 PM 23.4870 113.2060 226° Southwest 238 274 8,700 -632 Descending FlightAware ADS-B
Wed 12:57:18 PM 23.4760 113.2010 203° Southwest 223 257 8,600 -955 Descending FlightAware ADS-B
Wed 12:57:50 PM 23.4430 113.1950 189° South 218 251 8,000 -1,071 Descending FlightAware ADS-B
Wed 12:58:14 PM 23.4200 113.1900 191° South 213 245 7,600 -1,000 Descending FlightAware ADS-B
Wed 12:58:32 PM 23.4030 113.1860 192° South 212 244 7,300 -1,111 Descending FlightAware ADS-B
Wed 12:59:08 PM 23.3680 113.1790 190° South 208 239 6,600 -1,019 Descending FlightAware ADS-B
Wed 12:59:25 PM 23.3520 113.1760 190° South 201 231 6,400 -522 Descending FlightAware ADS-B
Wed 12:59:54 PM 23.3260 113.1700 192° South 194 223 6,200 -436 Descending FlightAware ADS-B
Wed 01:00:20 PM 23.3030 113.1650 191° South 189 217 6,000 -517 Descending FlightAware ADS-B
Wed 01:00:52 PM 23.2740 113.1590 191° South 192 221 5,700 -590 Descending FlightAware ADS-B
Wed 01:01:21 PM 23.2500 113.1540 191° South 189 217 5,400 -577 Descending FlightAware ADS-B
Wed 01:01:44 PM 23.2300 113.1500 190° South 184 212 5,200 -333 Descending FlightAware ADS-B
Wed 01:02:15 PM 23.2050 113.1450 190° South 185 213 5,100 -273 Descending FlightAware ADS-B
Wed 01:02:28 PM 23.1930 113.1420 193° South 187 215 5,000 -558 Descending FlightAware ADS-B
Wed 01:02:58 PM 23.1670 113.1370 190° South 183 211 4,700 -600 Descending FlightAware ADS-B
Wed 01:03:18 PM 23.1510 113.1340 190° South 183 211 4,500 -563 Descending FlightAware ADS-B
Wed 01:03:30 PM 23.1410 113.1330 185° South 183 211 4,400 -450 Descending FlightAware ADS-B
Wed 01:03:58 PM 23.1240 113.1470 143° Southeast 185 213 4,200 -257 Descending FlightAware ADS-B
Wed 01:04:40 PM 23.1310 113.1850 79° East 205 236 4,100 -83 Descending FlightAware ADS-B
Wed 01:05:10 PM 23.1520 113.2070 44° Northeast 204 235 4,100  Level FlightAware ADS-B
Wed 01:05:40 PM 23.1730 113.2270 41° Northeast 209 241 4,100 -444 Level FlightAware ADS-B
Wed 01:06:04 PM 23.1960 113.2350 18° North 212 244 3,700 -1,071 Descending FlightAware ADS-B
Wed 01:06:36 PM 23.2260 113.2430 14° North 213 245 3,100 -1,100 Descending FlightAware ADS-B
Wed 01:07:04 PM 23.2530 113.2500 13° North 204 235 2,600 -1,038 Descending FlightAware ADS-B
Wed 01:07:28 PM 23.2730 113.2560 15° North 183 211 2,200 -900 Descending FlightAware ADS-B
Wed 01:07:44 PM 23.2870 113.2590 11° North 168 193 2,000 -714 Descending FlightAware ADS-B
Wed 01:08:10 PM 23.3040 113.2640 15° North 144 166 1,700 -720 Descending FlightAware ADS-B
Wed 01:08:34 PM 23.3200 113.2680 13° North 136 157 1,400 -353 Descending FlightAware ADS-B
Wed 01:09:01 PM 23.3340 113.2720 15° North 136 157 1,400  Level FlightAware ADS-B
Wed 01:11:00 PM 23.3924 113.2988 23° Northeast  Level Estimated

Login

Don't have an account? Register now (free) for customized features, flight alerts, and more!